sensor_id;sensor_type;location;lat;lon;timestamp;P1;durP1;ratioP1;P2;durP2;ratioP2
26690;SDS011;14307;51.718;8.938;2023-04-15T00:01:02;20.70;;;18.77;;
26690;SDS011;14307;51.718;8.938;2023-04-15T00:03:29;19.80;;;18.10;;
26690;SDS011;14307;51.718;8.938;2023-04-15T00:05:56;20.02;;;18.33;;
26690;SDS011;14307;51.718;8.938;2023-04-15T00:08:23;19.88;;;18.00;;
26690;SDS011;14307;51.718;8.938;2023-04-15T00:10:50;19.58;;;18.05;;
26690;SDS011;14307;51.718;8.938;2023-04-15T00:13:17;20.70;;;18.98;;
26690;SDS011;14307;51.718;8.938;2023-04-15T00:15:43;20.55;;;18.70;;
26690;SDS011;14307;51.718;8.938;2023-04-15T00:18:10;20.67;;;18.75;;
26690;SDS011;14307;51.718;8.938;2023-04-15T00:20:37;20.58;;;18.67;;
26690;SDS011;14307;51.718;8.938;2023-04-15T00:23:03;19.23;;;17.42;;
26690;SDS011;14307;51.718;8.938;2023-04-15T00:25:30;19.40;;;17.60;;
26690;SDS011;14307;51.718;8.938;2023-04-15T00:27:57;19.95;;;17.50;;
26690;SDS011;14307;51.718;8.938;2023-04-15T00:30:24;18.80;;;17.20;;
26690;SDS011;14307;51.718;8.938;2023-04-15T00:32:51;19.42;;;17.83;;
26690;SDS011;14307;51.718;8.938;2023-04-15T00:35:19;19.25;;;17.50;;
26690;SDS011;14307;51.718;8.938;2023-04-15T00:37:48;20.90;;;18.80;;
26690;SDS011;14307;51.718;8.938;2023-04-15T00:40:15;23.20;;;18.20;;
26690;SDS011;14307;51.718;8.938;2023-04-15T00:42:43;19.23;;;17.50;;
26690;SDS011;14307;51.718;8.938;2023-04-15T00:45:10;19.00;;;17.13;;
26690;SDS011;14307;51.718;8.938;2023-04-15T00:47:38;19.23;;;17.45;;
26690;SDS011;14307;51.718;8.938;2023-04-15T00:50:07;19.75;;;17.95;;
26690;SDS011;14307;51.718;8.938;2023-04-15T00:52:35;19.90;;;18.02;;
26690;SDS011;14307;51.718;8.938;2023-04-15T00:55:02;19.35;;;17.63;;
26690;SDS011;14307;51.718;8.938;2023-04-15T00:57:30;21.45;;;19.42;;
26690;SDS011;14307;51.718;8.938;2023-04-15T00:59:57;19.38;;;17.52;;
26690;SDS011;14307;51.718;8.938;2023-04-15T01:02:25;19.83;;;17.73;;
26690;SDS011;14307;51.718;8.938;2023-04-15T01:04:52;19.77;;;17.40;;
26690;SDS011;14307;51.718;8.938;2023-04-15T01:07:19;18.85;;;16.73;;
26690;SDS011;14307;51.718;8.938;2023-04-15T01:09:46;17.23;;;15.48;;
26690;SDS011;14307;51.718;8.938;2023-04-15T01:12:13;23.17;;;16.83;;
26690;SDS011;14307;51.718;8.938;2023-04-15T01:14:41;18.83;;;17.02;;
26690;SDS011;14307;51.718;8.938;2023-04-15T01:17:08;18.75;;;16.95;;
26690;SDS011;14307;51.718;8.938;2023-04-15T01:19:35;18.75;;;16.52;;
26690;SDS011;14307;51.718;8.938;2023-04-15T01:22:03;17.35;;;15.57;;
26690;SDS011;14307;51.718;8.938;2023-04-15T01:24:30;21.27;;;16.20;;
26690;SDS011;14307;51.718;8.938;2023-04-15T01:26:58;16.48;;;14.90;;
26690;SDS011;14307;51.718;8.938;2023-04-15T01:29:25;18.15;;;15.23;;
26690;SDS011;14307;51.718;8.938;2023-04-15T01:31:52;18.75;;;14.45;;
26690;SDS011;14307;51.718;8.938;2023-04-15T01:34:21;18.27;;;14.57;;
26690;SDS011;14307;51.718;8.938;2023-04-15T01:36:52;17.05;;;15.23;;
26690;SDS011;14307;51.718;8.938;2023-04-15T01:39:20;18.00;;;14.45;;
26690;SDS011;14307;51.718;8.938;2023-04-15T01:41:47;16.20;;;14.60;;
26690;SDS011;14307;51.718;8.938;2023-04-15T01:44:14;16.25;;;14.48;;
26690;SDS011;14307;51.718;8.938;2023-04-15T01:46:41;17.05;;;15.32;;
26690;SDS011;14307;51.718;8.938;2023-04-15T01:49:08;16.40;;;14.90;;
26690;SDS011;14307;51.718;8.938;2023-04-15T01:51:35;17.42;;;15.55;;
26690;SDS011;14307;51.718;8.938;2023-04-15T01:54:02;15.85;;;14.45;;
26690;SDS011;14307;51.718;8.938;2023-04-15T01:56:29;17.38;;;15.55;;
26690;SDS011;14307;51.718;8.938;2023-04-15T01:58:55;17.08;;;15.38;;
26690;SDS011;14307;51.718;8.938;2023-04-15T02:01:22;17.02;;;15.43;;
26690;SDS011;14307;51.718;8.938;2023-04-15T02:03:49;18.38;;;15.52;;
26690;SDS011;14307;51.718;8.938;2023-04-15T02:06:16;16.58;;;15.05;;
26690;SDS011;14307;51.718;8.938;2023-04-15T02:08:43;18.20;;;16.55;;
26690;SDS011;14307;51.718;8.938;2023-04-15T02:11:10;17.88;;;16.02;;
26690;SDS011;14307;51.718;8.938;2023-04-15T02:13:37;16.73;;;15.05;;
26690;SDS011;14307;51.718;8.938;2023-04-15T02:16:04;18.63;;;16.75;;
26690;SDS011;14307;51.718;8.938;2023-04-15T02:18:43;17.63;;;15.82;;
26690;SDS011;14307;51.718;8.938;2023-04-15T02:21:10;18.02;;;16.23;;
26690;SDS011;14307;51.718;8.938;2023-04-15T02:23:37;18.35;;;16.30;;
26690;SDS011;14307;51.718;8.938;2023-04-15T02:26:03;17.80;;;16.20;;
26690;SDS011;14307;51.718;8.938;2023-04-15T02:28:30;16.92;;;15.38;;
26690;SDS011;14307;51.718;8.938;2023-04-15T02:30:57;17.05;;;15.30;;
26690;SDS011;14307;51.718;8.938;2023-04-15T02:33:24;17.48;;;15.68;;
26690;SDS011;14307;51.718;8.938;2023-04-15T02:35:51;18.40;;;16.02;;
26690;SDS011;14307;51.718;8.938;2023-04-15T02:38:18;18.45;;;16.63;;
26690;SDS011;14307;51.718;8.938;2023-04-15T02:40:45;19.02;;;16.30;;
26690;SDS011;14307;51.718;8.938;2023-04-15T02:43:14;18.88;;;16.50;;
26690;SDS011;14307;51.718;8.938;2023-04-15T02:45:42;19.15;;;16.35;;
26690;SDS011;14307;51.718;8.938;2023-04-15T02:48:10;17.98;;;16.20;;
26690;SDS011;14307;51.718;8.938;2023-04-15T02:50:37;17.60;;;15.80;;
26690;SDS011;14307;51.718;8.938;2023-04-15T02:53:07;17.23;;;15.55;;
26690;SDS011;14307;51.718;8.938;2023-04-15T02:55:33;17.27;;;15.63;;
26690;SDS011;14307;51.718;8.938;2023-04-15T02:58:00;19.45;;;17.05;;
26690;SDS011;14307;51.718;8.938;2023-04-15T03:00:27;17.83;;;15.98;;
26690;SDS011;14307;51.718;8.938;2023-04-15T03:02:57;18.55;;;16.70;;
26690;SDS011;14307;51.718;8.938;2023-04-15T03:05:31;19.00;;;17.00;;
26690;SDS011;14307;51.718;8.938;2023-04-15T03:07:59;21.15;;;16.02;;
26690;SDS011;14307;51.718;8.938;2023-04-15T03:10:26;18.30;;;16.52;;
26690;SDS011;14307;51.718;8.938;2023-04-15T03:12:53;19.88;;;17.02;;
26690;SDS011;14307;51.718;8.938;2023-04-15T03:15:22;19.55;;;17.50;;
26690;SDS011;14307;51.718;8.938;2023-04-15T03:17:50;16.10;;;14.45;;
26690;SDS011;14307;51.718;8.938;2023-04-15T03:20:18;18.17;;;16.13;;
26690;SDS011;14307;51.718;8.938;2023-04-15T03:22:46;20.10;;;16.50;;
26690;SDS011;14307;51.718;8.938;2023-04-15T03:25:13;18.60;;;16.67;;
26690;SDS011;14307;51.718;8.938;2023-04-15T03:27:40;20.00;;;17.15;;
26690;SDS011;14307;51.718;8.938;2023-04-15T03:30:07;18.60;;;15.95;;
26690;SDS011;14307;51.718;8.938;2023-04-15T03:32:36;18.30;;;16.40;;
26690;SDS011;14307;51.718;8.938;2023-04-15T03:35:05;21.20;;;17.67;;
26690;SDS011;14307;51.718;8.938;2023-04-15T03:37:31;22.60;;;17.15;;
26690;SDS011;14307;51.718;8.938;2023-04-15T03:39:58;20.33;;;15.95;;
26690;SDS011;14307;51.718;8.938;2023-04-15T03:42:25;18.70;;;16.77;;
26690;SDS011;14307;51.718;8.938;2023-04-15T03:44:52;22.58;;;17.80;;
26690;SDS011;14307;51.718;8.938;2023-04-15T03:47:19;19.20;;;17.23;;
26690;SDS011;14307;51.718;8.938;2023-04-15T03:49:46;18.10;;;16.23;;
26690;SDS011;14307;51.718;8.938;2023-04-15T03:52:12;17.67;;;15.80;;
26690;SDS011;14307;51.718;8.938;2023-04-15T03:54:39;18.05;;;15.82;;
26690;SDS011;14307;51.718;8.938;2023-04-15T03:57:06;18.90;;;15.23;;
26690;SDS011;14307;51.718;8.938;2023-04-15T03:59:32;18.05;;;15.38;;
26690;SDS011;14307;51.718;8.938;2023-04-15T04:01:59;16.73;;;14.55;;
26690;SDS011;14307;51.718;8.938;2023-04-15T04:04:26;15.95;;;14.30;;
26690;SDS011;14307;51.718;8.938;2023-04-15T04:06:52;16.58;;;13.48;;
26690;SDS011;14307;51.718;8.938;2023-04-15T04:09:19;19.77;;;15.88;;
26690;SDS011;14307;51.718;8.938;2023-04-15T04:11:46;31.65;;;19.58;;
26690;SDS011;14307;51.718;8.938;2023-04-15T04:14:12;24.00;;;17.23;;
26690;SDS011;14307;51.718;8.938;2023-04-15T04:16:39;30.60;;;19.90;;
26690;SDS011;14307;51.718;8.938;2023-04-15T04:19:06;26.27;;;17.65;;
26690;SDS011;14307;51.718;8.938;2023-04-15T04:21:32;36.60;;;21.10;;
26690;SDS011;14307;51.718;8.938;2023-04-15T04:23:59;27.73;;;18.33;;
26690;SDS011;14307;51.718;8.938;2023-04-15T04:26:26;26.55;;;15.90;;
26690;SDS011;14307;51.718;8.938;2023-04-15T04:28:52;26.30;;;16.45;;
26690;SDS011;14307;51.718;8.938;2023-04-15T04:31:19;24.20;;;17.98;;
26690;SDS011;14307;51.718;8.938;2023-04-15T04:33:46;23.45;;;17.80;;
26690;SDS011;14307;51.718;8.938;2023-04-15T04:36:13;30.20;;;19.20;;
26690;SDS011;14307;51.718;8.938;2023-04-15T04:38:39;25.98;;;18.92;;
26690;SDS011;14307;51.718;8.938;2023-04-15T04:41:06;24.45;;;17.98;;
26690;SDS011;14307;51.718;8.938;2023-04-15T04:43:33;26.92;;;19.75;;
26690;SDS011;14307;51.718;8.938;2023-04-15T04:45:59;28.23;;;18.60;;
26690;SDS011;14307;51.718;8.938;2023-04-15T04:48:26;28.65;;;19.73;;
26690;SDS011;14307;51.718;8.938;2023-04-15T04:50:53;28.88;;;20.17;;
26690;SDS011;14307;51.718;8.938;2023-04-15T04:53:19;24.67;;;20.33;;
26690;SDS011;14307;51.718;8.938;2023-04-15T04:55:46;23.88;;;21.38;;
26690;SDS011;14307;51.718;8.938;2023-04-15T04:58:13;24.23;;;19.65;;
26690;SDS011;14307;51.718;8.938;2023-04-15T05:00:39;29.90;;;20.60;;
26690;SDS011;14307;51.718;8.938;2023-04-15T05:03:07;29.02;;;21.70;;
26690;SDS011;14307;51.718;8.938;2023-04-15T05:05:34;44.55;;;27.45;;
26690;SDS011;14307;51.718;8.938;2023-04-15T05:08:02;49.13;;;27.38;;
26690;SDS011;14307;51.718;8.938;2023-04-15T05:10:28;48.25;;;27.38;;
26690;SDS011;14307;51.718;8.938;2023-04-15T05:12:55;46.72;;;27.55;;
26690;SDS011;14307;51.718;8.938;2023-04-15T05:15:22;54.95;;;29.67;;
26690;SDS011;14307;51.718;8.938;2023-04-15T05:17:49;47.47;;;27.13;;
26690;SDS011;14307;51.718;8.938;2023-04-15T05:20:16;54.35;;;27.13;;
26690;SDS011;14307;51.718;8.938;2023-04-15T05:22:43;51.88;;;28.83;;
26690;SDS011;14307;51.718;8.938;2023-04-15T05:25:10;54.78;;;29.85;;
26690;SDS011;14307;51.718;8.938;2023-04-15T05:27:37;56.55;;;30.83;;
26690;SDS011;14307;51.718;8.938;2023-04-15T05:30:04;57.55;;;30.48;;
26690;SDS011;14307;51.718;8.938;2023-04-15T05:32:32;55.40;;;30.15;;
26690;SDS011;14307;51.718;8.938;2023-04-15T05:34:59;53.35;;;29.20;;
26690;SDS011;14307;51.718;8.938;2023-04-15T05:37:26;55.42;;;29.08;;
26690;SDS011;14307;51.718;8.938;2023-04-15T05:39:52;52.80;;;28.23;;
26690;SDS011;14307;51.718;8.938;2023-04-15T05:42:19;61.78;;;31.45;;
26690;SDS011;14307;51.718;8.938;2023-04-15T05:44:46;57.45;;;31.58;;
26690;SDS011;14307;51.718;8.938;2023-04-15T05:47:12;57.97;;;30.58;;
26690;SDS011;14307;51.718;8.938;2023-04-15T05:49:39;51.10;;;28.55;;
26690;SDS011;14307;51.718;8.938;2023-04-15T05:52:05;51.75;;;29.90;;
26690;SDS011;14307;51.718;8.938;2023-04-15T05:54:32;47.60;;;28.85;;
26690;SDS011;14307;51.718;8.938;2023-04-15T05:56:59;50.40;;;28.08;;
26690;SDS011;14307;51.718;8.938;2023-04-15T05:59:26;49.45;;;29.92;;
26690;SDS011;14307;51.718;8.938;2023-04-15T06:01:53;47.78;;;28.00;;
26690;SDS011;14307;51.718;8.938;2023-04-15T06:04:20;47.38;;;29.10;;
26690;SDS011;14307;51.718;8.938;2023-04-15T06:06:47;43.30;;;27.02;;
26690;SDS011;14307;51.718;8.938;2023-04-15T06:09:14;45.15;;;28.27;;
26690;SDS011;14307;51.718;8.938;2023-04-15T06:11:41;42.47;;;28.25;;
26690;SDS011;14307;51.718;8.938;2023-04-15T06:14:08;50.42;;;30.52;;
26690;SDS011;14307;51.718;8.938;2023-04-15T06:16:35;44.78;;;27.02;;
26690;SDS011;14307;51.718;8.938;2023-04-15T06:19:02;43.80;;;26.02;;
26690;SDS011;14307;51.718;8.938;2023-04-15T06:21:29;41.67;;;26.40;;
26690;SDS011;14307;51.718;8.938;2023-04-15T06:23:57;40.40;;;27.88;;
26690;SDS011;14307;51.718;8.938;2023-04-15T06:26:26;41.65;;;26.77;;
26690;SDS011;14307;51.718;8.938;2023-04-15T06:28:53;39.55;;;27.33;;
26690;SDS011;14307;51.718;8.938;2023-04-15T06:31:20;42.40;;;26.10;;
26690;SDS011;14307;51.718;8.938;2023-04-15T06:33:46;37.47;;;23.60;;
26690;SDS011;14307;51.718;8.938;2023-04-15T06:36:13;39.92;;;27.75;;
26690;SDS011;14307;51.718;8.938;2023-04-15T06:38:40;41.10;;;27.67;;
26690;SDS011;14307;51.718;8.938;2023-04-15T06:41:07;40.92;;;26.52;;
26690;SDS011;14307;51.718;8.938;2023-04-15T06:43:33;46.72;;;28.40;;
26690;SDS011;14307;51.718;8.938;2023-04-15T06:46:00;44.22;;;28.13;;
26690;SDS011;14307;51.718;8.938;2023-04-15T06:48:27;46.33;;;27.45;;
26690;SDS011;14307;51.718;8.938;2023-04-15T06:50:54;48.95;;;29.30;;
26690;SDS011;14307;51.718;8.938;2023-04-15T06:53:21;50.33;;;29.00;;
26690;SDS011;14307;51.718;8.938;2023-04-15T06:55:48;48.72;;;29.25;;
26690;SDS011;14307;51.718;8.938;2023-04-15T06:58:14;45.42;;;28.73;;
26690;SDS011;14307;51.718;8.938;2023-04-15T07:00:41;49.20;;;29.85;;
26690;SDS011;14307;51.718;8.938;2023-04-15T07:03:08;55.42;;;30.63;;
26690;SDS011;14307;51.718;8.938;2023-04-15T07:05:36;55.55;;;29.88;;
26690;SDS011;14307;51.718;8.938;2023-04-15T07:08:03;57.25;;;30.58;;
26690;SDS011;14307;51.718;8.938;2023-04-15T07:10:31;56.28;;;30.90;;
26690;SDS011;14307;51.718;8.938;2023-04-15T07:13:01;52.10;;;30.40;;
26690;SDS011;14307;51.718;8.938;2023-04-15T07:15:28;56.13;;;30.52;;
26690;SDS011;14307;51.718;8.938;2023-04-15T07:17:55;58.20;;;31.05;;
26690;SDS011;14307;51.718;8.938;2023-04-15T07:20:22;57.30;;;31.48;;
26690;SDS011;14307;51.718;8.938;2023-04-15T07:22:48;60.70;;;31.88;;
26690;SDS011;14307;51.718;8.938;2023-04-15T07:25:15;54.38;;;30.10;;
26690;SDS011;14307;51.718;8.938;2023-04-15T07:27:42;52.42;;;28.65;;
26690;SDS011;14307;51.718;8.938;2023-04-15T07:30:09;56.50;;;29.15;;
26690;SDS011;14307;51.718;8.938;2023-04-15T07:32:37;55.17;;;31.08;;
26690;SDS011;14307;51.718;8.938;2023-04-15T07:35:04;58.33;;;30.30;;
26690;SDS011;14307;51.718;8.938;2023-04-15T07:37:31;59.45;;;31.13;;
26690;SDS011;14307;51.718;8.938;2023-04-15T07:39:58;59.63;;;30.20;;
26690;SDS011;14307;51.718;8.938;2023-04-15T07:42:25;50.03;;;28.02;;
26690;SDS011;14307;51.718;8.938;2023-04-15T07:44:52;55.20;;;29.75;;
26690;SDS011;14307;51.718;8.938;2023-04-15T07:47:18;56.40;;;28.45;;
26690;SDS011;14307;51.718;8.938;2023-04-15T07:49:45;54.92;;;27.63;;
26690;SDS011;14307;51.718;8.938;2023-04-15T07:52:12;52.10;;;28.23;;
26690;SDS011;14307;51.718;8.938;2023-04-15T07:54:39;56.40;;;27.58;;
26690;SDS011;14307;51.718;8.938;2023-04-15T07:57:05;55.95;;;28.27;;
26690;SDS011;14307;51.718;8.938;2023-04-15T07:59:32;51.58;;;27.58;;
26690;SDS011;14307;51.718;8.938;2023-04-15T08:01:59;49.40;;;26.92;;
26690;SDS011;14307;51.718;8.938;2023-04-15T08:04:26;46.88;;;26.40;;
26690;SDS011;14307;51.718;8.938;2023-04-15T08:06:53;53.80;;;27.33;;
26690;SDS011;14307;51.718;8.938;2023-04-15T08:09:20;52.13;;;28.15;;
26690;SDS011;14307;51.718;8.938;2023-04-15T08:11:47;48.17;;;27.75;;
26690;SDS011;14307;51.718;8.938;2023-04-15T08:14:15;56.42;;;27.05;;
26690;SDS011;14307;51.718;8.938;2023-04-15T08:16:42;47.67;;;25.48;;
26690;SDS011;14307;51.718;8.938;2023-04-15T08:19:09;52.03;;;26.35;;
26690;SDS011;14307;51.718;8.938;2023-04-15T08:21:36;51.03;;;26.00;;
26690;SDS011;14307;51.718;8.938;2023-04-15T08:24:02;56.53;;;25.77;;
26690;SDS011;14307;51.718;8.938;2023-04-15T08:26:29;54.17;;;27.27;;
26690;SDS011;14307;51.718;8.938;2023-04-15T08:28:56;44.92;;;22.85;;
26690;SDS011;14307;51.718;8.938;2023-04-15T08:31:25;42.55;;;23.45;;
26690;SDS011;14307;51.718;8.938;2023-04-15T08:33:52;44.88;;;24.45;;
26690;SDS011;14307;51.718;8.938;2023-04-15T08:36:19;43.83;;;23.75;;
26690;SDS011;14307;51.718;8.938;2023-04-15T08:38:46;47.25;;;25.45;;
26690;SDS011;14307;51.718;8.938;2023-04-15T08:41:19;43.88;;;24.17;;
26690;SDS011;14307;51.718;8.938;2023-04-15T08:43:56;44.65;;;21.98;;
26690;SDS011;14307;51.718;8.938;2023-04-15T08:46:23;41.47;;;21.10;;
26690;SDS011;14307;51.718;8.938;2023-04-15T08:48:51;34.85;;;19.17;;
26690;SDS011;14307;51.718;8.938;2023-04-15T08:51:22;36.97;;;19.60;;
26690;SDS011;14307;51.718;8.938;2023-04-15T08:53:50;36.20;;;18.90;;
26690;SDS011;14307;51.718;8.938;2023-04-15T08:56:17;33.63;;;18.20;;
26690;SDS011;14307;51.718;8.938;2023-04-15T08:58:45;39.20;;;19.77;;
26690;SDS011;14307;51.718;8.938;2023-04-15T09:01:12;37.63;;;21.27;;
26690;SDS011;14307;51.718;8.938;2023-04-15T09:03:39;34.97;;;19.65;;
26690;SDS011;14307;51.718;8.938;2023-04-15T09:06:07;35.00;;;19.15;;
26690;SDS011;14307;51.718;8.938;2023-04-15T09:08:34;33.15;;;17.83;;
26690;SDS011;14307;51.718;8.938;2023-04-15T09:11:01;31.80;;;18.38;;
26690;SDS011;14307;51.718;8.938;2023-04-15T09:13:29;36.25;;;20.40;;
26690;SDS011;14307;51.718;8.938;2023-04-15T09:15:56;25.90;;;15.05;;
26690;SDS011;14307;51.718;8.938;2023-04-15T09:18:26;28.05;;;16.80;;
26690;SDS011;14307;51.718;8.938;2023-04-15T09:20:54;25.02;;;15.88;;
26690;SDS011;14307;51.718;8.938;2023-04-15T09:23:21;26.30;;;11.82;;
26690;SDS011;14307;51.718;8.938;2023-04-15T09:25:48;19.80;;;11.93;;
26690;SDS011;14307;51.718;8.938;2023-04-15T09:28:22;26.98;;;15.20;;
26690;SDS011;14307;51.718;8.938;2023-04-15T09:30:50;21.85;;;12.57;;
26690;SDS011;14307;51.718;8.938;2023-04-15T09:33:23;24.33;;;12.32;;
26690;SDS011;14307;51.718;8.938;2023-04-15T09:35:55;24.95;;;13.80;;
26690;SDS011;14307;51.718;8.938;2023-04-15T09:38:24;21.58;;;11.30;;
26690;SDS011;14307;51.718;8.938;2023-04-15T09:40:50;21.40;;;11.98;;
26690;SDS011;14307;51.718;8.938;2023-04-15T09:43:17;23.02;;;12.25;;
26690;SDS011;14307;51.718;8.938;2023-04-15T09:45:53;25.45;;;11.38;;
26690;SDS011;14307;51.718;8.938;2023-04-15T09:48:20;25.48;;;14.27;;
26690;SDS011;14307;51.718;8.938;2023-04-15T09:50:48;25.88;;;12.43;;
26690;SDS011;14307;51.718;8.938;2023-04-15T09:53:25;24.83;;;13.43;;
26690;SDS011;14307;51.718;8.938;2023-04-15T09:55:57;24.70;;;12.00;;
26690;SDS011;14307;51.718;8.938;2023-04-15T09:58:26;20.33;;;11.73;;
26690;SDS011;14307;51.718;8.938;2023-04-15T10:00:55;18.55;;;11.23;;
26690;SDS011;14307;51.718;8.938;2023-04-15T10:03:24;18.60;;;10.90;;
26690;SDS011;14307;51.718;8.938;2023-04-15T10:05:58;22.38;;;12.73;;
26690;SDS011;14307;51.718;8.938;2023-04-15T10:08:27;18.48;;;9.88;;
26690;SDS011;14307;51.718;8.938;2023-04-15T10:10:55;21.67;;;11.43;;
26690;SDS011;14307;51.718;8.938;2023-04-15T10:13:23;18.48;;;9.85;;
26690;SDS011;14307;51.718;8.938;2023-04-15T10:15:55;22.98;;;10.80;;
26690;SDS011;14307;51.718;8.938;2023-04-15T10:18:25;21.33;;;11.57;;
26690;SDS011;14307;51.718;8.938;2023-04-15T10:20:53;23.45;;;11.82;;
26690;SDS011;14307;51.718;8.938;2023-04-15T10:23:21;19.98;;;11.43;;
26690;SDS011;14307;51.718;8.938;2023-04-15T10:25:50;21.98;;;12.13;;
26690;SDS011;14307;51.718;8.938;2023-04-15T10:28:20;17.98;;;10.55;;
26690;SDS011;14307;51.718;8.938;2023-04-15T10:30:48;20.05;;;11.00;;
26690;SDS011;14307;51.718;8.938;2023-04-15T10:33:16;23.88;;;11.95;;
26690;SDS011;14307;51.718;8.938;2023-04-15T10:35:47;22.13;;;11.55;;
26690;SDS011;14307;51.718;8.938;2023-04-15T10:41:11;28.10;;;12.60;;
26690;SDS011;14307;51.718;8.938;2023-04-15T10:46:23;22.98;;;11.90;;
26690;SDS011;14307;51.718;8.938;2023-04-15T10:49:08;17.48;;;10.50;;
26690;SDS011;14307;51.718;8.938;2023-04-15T10:51:46;21.15;;;11.88;;
26690;SDS011;14307;51.718;8.938;2023-04-15T10:56:51;20.98;;;10.80;;
26690;SDS011;14307;51.718;8.938;2023-04-15T10:59:37;18.17;;;10.10;;
26690;SDS011;14307;51.718;8.938;2023-04-15T11:05:12;21.33;;;11.32;;
26690;SDS011;14307;51.718;8.938;2023-04-15T11:12:46;14.20;;;10.27;;
26690;SDS011;14307;51.718;8.938;2023-04-15T11:15:39;21.38;;;12.27;;
26690;SDS011;14307;51.718;8.938;2023-04-15T11:18:09;20.17;;;10.57;;
26690;SDS011;14307;51.718;8.938;2023-04-15T11:20:43;19.08;;;11.68;;
26690;SDS011;14307;51.718;8.938;2023-04-15T11:23:14;22.48;;;12.55;;
26690;SDS011;14307;51.718;8.938;2023-04-15T11:25:42;23.83;;;12.57;;
26690;SDS011;14307;51.718;8.938;2023-04-15T11:28:10;23.38;;;13.27;;
26690;SDS011;14307;51.718;8.938;2023-04-15T11:30:38;22.25;;;13.05;;
26690;SDS011;14307;51.718;8.938;2023-04-15T11:33:06;23.02;;;13.23;;
26690;SDS011;14307;51.718;8.938;2023-04-15T11:35:35;22.02;;;12.70;;
26690;SDS011;14307;51.718;8.938;2023-04-15T11:38:09;25.77;;;13.93;;
26690;SDS011;14307;51.718;8.938;2023-04-15T11:40:38;25.33;;;14.30;;
26690;SDS011;14307;51.718;8.938;2023-04-15T11:43:06;23.30;;;12.85;;
26690;SDS011;14307;51.718;8.938;2023-04-15T11:45:35;26.00;;;12.38;;
26690;SDS011;14307;51.718;8.938;2023-04-15T11:50:37;22.05;;;11.90;;
26690;SDS011;14307;51.718;8.938;2023-04-15T11:53:07;20.23;;;11.93;;
26690;SDS011;14307;51.718;8.938;2023-04-15T11:55:45;19.92;;;12.40;;
26690;SDS011;14307;51.718;8.938;2023-04-15T12:03:25;19.92;;;12.15;;
26690;SDS011;14307;51.718;8.938;2023-04-15T12:14:04;17.27;;;11.05;;
26690;SDS011;14307;51.718;8.938;2023-04-15T12:16:40;18.08;;;10.60;;
26690;SDS011;14307;51.718;8.938;2023-04-15T12:19:15;16.80;;;10.73;;
26690;SDS011;14307;51.718;8.938;2023-04-15T12:22:03;18.38;;;10.95;;
26690;SDS011;14307;51.718;8.938;2023-04-15T12:24:32;16.80;;;10.15;;
26690;SDS011;14307;51.718;8.938;2023-04-15T12:27:02;15.23;;;9.82;;
26690;SDS011;14307;51.718;8.938;2023-04-15T12:29:30;15.77;;;11.15;;
26690;SDS011;14307;51.718;8.938;2023-04-15T12:32:02;19.30;;;11.27;;
26690;SDS011;14307;51.718;8.938;2023-04-15T12:34:42;20.65;;;12.18;;
26690;SDS011;14307;51.718;8.938;2023-04-15T12:37:14;20.80;;;12.60;;
26690;SDS011;14307;51.718;8.938;2023-04-15T12:39:42;20.42;;;12.80;;
26690;SDS011;14307;51.718;8.938;2023-04-15T12:42:10;20.75;;;12.65;;
26690;SDS011;14307;51.718;8.938;2023-04-15T12:44:37;22.35;;;14.07;;
26690;SDS011;14307;51.718;8.938;2023-04-15T12:47:05;24.95;;;15.10;;
26690;SDS011;14307;51.718;8.938;2023-04-15T12:49:33;25.45;;;15.43;;
26690;SDS011;14307;51.718;8.938;2023-04-15T12:52:00;25.13;;;14.60;;
26690;SDS011;14307;51.718;8.938;2023-04-15T12:54:28;26.52;;;15.98;;
26690;SDS011;14307;51.718;8.938;2023-04-15T12:56:56;22.13;;;14.23;;
26690;SDS011;14307;51.718;8.938;2023-04-15T12:59:23;26.42;;;15.85;;
26690;SDS011;14307;51.718;8.938;2023-04-15T13:01:50;23.55;;;14.48;;
26690;SDS011;14307;51.718;8.938;2023-04-15T13:04:18;25.30;;;14.68;;
26690;SDS011;14307;51.718;8.938;2023-04-15T13:06:46;24.55;;;15.32;;
26690;SDS011;14307;51.718;8.938;2023-04-15T13:09:13;27.17;;;15.63;;
26690;SDS011;14307;51.718;8.938;2023-04-15T13:11:40;29.55;;;17.90;;
26690;SDS011;14307;51.718;8.938;2023-04-15T13:14:07;25.63;;;16.08;;
26690;SDS011;14307;51.718;8.938;2023-04-15T13:16:36;26.35;;;16.75;;
26690;SDS011;14307;51.718;8.938;2023-04-15T13:19:03;28.48;;;17.35;;
26690;SDS011;14307;51.718;8.938;2023-04-15T13:21:30;30.35;;;18.48;;
26690;SDS011;14307;51.718;8.938;2023-04-15T13:24:00;35.95;;;20.27;;
26690;SDS011;14307;51.718;8.938;2023-04-15T13:26:28;26.77;;;16.77;;
26690;SDS011;14307;51.718;8.938;2023-04-15T13:28:54;28.25;;;17.63;;
26690;SDS011;14307;51.718;8.938;2023-04-15T13:31:21;29.13;;;17.33;;
26690;SDS011;14307;51.718;8.938;2023-04-15T13:33:48;35.22;;;19.80;;
26690;SDS011;14307;51.718;8.938;2023-04-15T13:36:15;32.50;;;19.33;;
26690;SDS011;14307;51.718;8.938;2023-04-15T13:38:42;28.17;;;16.58;;
26690;SDS011;14307;51.718;8.938;2023-04-15T13:41:08;36.15;;;20.85;;
26690;SDS011;14307;51.718;8.938;2023-04-15T13:43:35;33.03;;;18.88;;
26690;SDS011;14307;51.718;8.938;2023-04-15T13:46:02;30.00;;;16.33;;
26690;SDS011;14307;51.718;8.938;2023-04-15T13:48:29;30.40;;;17.02;;
26690;SDS011;14307;51.718;8.938;2023-04-15T13:50:56;31.50;;;19.00;;
26690;SDS011;14307;51.718;8.938;2023-04-15T13:53:23;32.60;;;19.23;;
26690;SDS011;14307;51.718;8.938;2023-04-15T13:56:05;33.17;;;17.58;;
26690;SDS011;14307;51.718;8.938;2023-04-15T13:58:33;31.77;;;19.13;;
26690;SDS011;14307;51.718;8.938;2023-04-15T14:00:59;27.40;;;16.70;;
26690;SDS011;14307;51.718;8.938;2023-04-15T14:03:29;31.13;;;18.50;;
26690;SDS011;14307;51.718;8.938;2023-04-15T14:05:56;33.28;;;18.90;;
26690;SDS011;14307;51.718;8.938;2023-04-15T14:08:23;35.30;;;19.85;;
26690;SDS011;14307;51.718;8.938;2023-04-15T14:10:50;38.60;;;20.98;;
26690;SDS011;14307;51.718;8.938;2023-04-15T14:13:17;38.97;;;22.33;;
26690;SDS011;14307;51.718;8.938;2023-04-15T14:15:44;35.75;;;21.20;;
26690;SDS011;14307;51.718;8.938;2023-04-15T14:18:11;33.95;;;17.95;;
26690;SDS011;14307;51.718;8.938;2023-04-15T14:20:38;40.10;;;23.27;;
26690;SDS011;14307;51.718;8.938;2023-04-15T14:23:05;42.80;;;23.15;;
26690;SDS011;14307;51.718;8.938;2023-04-15T14:25:32;49.22;;;26.85;;
26690;SDS011;14307;51.718;8.938;2023-04-15T14:27:59;42.03;;;24.75;;
26690;SDS011;14307;51.718;8.938;2023-04-15T14:30:27;43.88;;;22.83;;
26690;SDS011;14307;51.718;8.938;2023-04-15T14:32:54;45.03;;;23.48;;
26690;SDS011;14307;51.718;8.938;2023-04-15T14:35:20;47.63;;;24.02;;
26690;SDS011;14307;51.718;8.938;2023-04-15T14:37:49;49.15;;;26.20;;
26690;SDS011;14307;51.718;8.938;2023-04-15T14:40:16;46.38;;;25.45;;
26690;SDS011;14307;51.718;8.938;2023-04-15T14:42:42;46.70;;;24.83;;
26690;SDS011;14307;51.718;8.938;2023-04-15T14:45:09;53.97;;;27.02;;
26690;SDS011;14307;51.718;8.938;2023-04-15T14:47:36;53.55;;;28.60;;
26690;SDS011;14307;51.718;8.938;2023-04-15T14:50:03;54.33;;;27.33;;
26690;SDS011;14307;51.718;8.938;2023-04-15T14:52:30;49.17;;;25.15;;
26690;SDS011;14307;51.718;8.938;2023-04-15T14:55:10;52.28;;;24.83;;
26690;SDS011;14307;51.718;8.938;2023-04-15T14:57:37;57.90;;;28.08;;